sensor_id;sensor_type;location;lat;lon;timestamp;P1;durP1;ratioP1;P2;durP2;ratioP2
66830;SDS011;53739;44.224;22.528;2023-02-22T00:00:24;29.38;;;16.92;;
66830;SDS011;53739;44.224;22.528;2023-02-22T00:03:18;24.27;;;13.27;;
66830;SDS011;53739;44.224;22.528;2023-02-22T00:05:53;25.33;;;14.20;;
66830;SDS011;53739;44.224;22.528;2023-02-22T00:08:23;27.15;;;14.75;;
66830;SDS011;53739;44.224;22.528;2023-02-22T00:10:54;36.65;;;17.15;;
66830;SDS011;53739;44.224;22.528;2023-02-22T00:13:21;60.83;;;27.58;;
66830;SDS011;53739;44.224;22.528;2023-02-22T00:15:47;53.85;;;25.38;;
66830;SDS011;53739;44.224;22.528;2023-02-22T00:18:14;53.55;;;23.70;;
66830;SDS011;53739;44.224;22.528;2023-02-22T00:20:41;47.05;;;21.80;;
66830;SDS011;53739;44.224;22.528;2023-02-22T00:23:11;40.22;;;21.35;;
66830;SDS011;53739;44.224;22.528;2023-02-22T00:25:39;39.75;;;19.85;;
66830;SDS011;53739;44.224;22.528;2023-02-22T00:28:05;30.02;;;16.30;;
66830;SDS011;53739;44.224;22.528;2023-02-22T00:30:31;31.90;;;18.30;;
66830;SDS011;53739;44.224;22.528;2023-02-22T00:33:00;45.17;;;25.92;;
66830;SDS011;53739;44.224;22.528;2023-02-22T00:35:27;39.95;;;26.30;;
66830;SDS011;53739;44.224;22.528;2023-02-22T00:37:56;76.45;;;46.83;;
66830;SDS011;53739;44.224;22.528;2023-02-22T00:40:26;72.53;;;40.13;;
66830;SDS011;53739;44.224;22.528;2023-02-22T00:42:54;27.75;;;14.88;;
66830;SDS011;53739;44.224;22.528;2023-02-22T00:45:22;56.88;;;31.42;;
66830;SDS011;53739;44.224;22.528;2023-02-22T00:47:49;38.20;;;21.60;;
66830;SDS011;53739;44.224;22.528;2023-02-22T00:50:16;38.75;;;21.00;;
66830;SDS011;53739;44.224;22.528;2023-02-22T00:52:42;45.78;;;24.17;;
66830;SDS011;53739;44.224;22.528;2023-02-22T00:55:13;32.83;;;16.45;;
66830;SDS011;53739;44.224;22.528;2023-02-22T00:57:44;136.93;;;55.95;;
66830;SDS011;53739;44.224;22.528;2023-02-22T01:00:13;48.60;;;24.48;;
66830;SDS011;53739;44.224;22.528;2023-02-22T01:02:41;67.47;;;31.17;;
66830;SDS011;53739;44.224;22.528;2023-02-22T01:05:08;62.10;;;30.40;;
66830;SDS011;53739;44.224;22.528;2023-02-22T01:07:36;60.67;;;28.38;;
66830;SDS011;53739;44.224;22.528;2023-02-22T01:10:04;71.57;;;34.28;;
66830;SDS011;53739;44.224;22.528;2023-02-22T01:12:32;52.53;;;25.33;;
66830;SDS011;53739;44.224;22.528;2023-02-22T01:14:58;75.22;;;32.78;;
66830;SDS011;53739;44.224;22.528;2023-02-22T01:17:25;151.00;;;63.60;;
66830;SDS011;53739;44.224;22.528;2023-02-22T01:19:52;108.97;;;48.88;;
66830;SDS011;53739;44.224;22.528;2023-02-22T01:22:19;88.63;;;38.40;;
66830;SDS011;53739;44.224;22.528;2023-02-22T01:24:49;45.58;;;21.13;;
66830;SDS011;53739;44.224;22.528;2023-02-22T01:27:16;143.25;;;68.55;;
66830;SDS011;53739;44.224;22.528;2023-02-22T01:29:42;132.82;;;67.05;;
66830;SDS011;53739;44.224;22.528;2023-02-22T01:32:09;132.05;;;55.55;;
66830;SDS011;53739;44.224;22.528;2023-02-22T01:34:36;162.25;;;86.78;;
66830;SDS011;53739;44.224;22.528;2023-02-22T01:37:02;178.98;;;93.32;;
66830;SDS011;53739;44.224;22.528;2023-02-22T01:39:27;56.55;;;28.63;;
66830;SDS011;53739;44.224;22.528;2023-02-22T01:41:53;74.97;;;35.70;;
66830;SDS011;53739;44.224;22.528;2023-02-22T01:44:33;87.85;;;40.95;;
66830;SDS011;53739;44.224;22.528;2023-02-22T01:47:01;238.15;;;96.72;;
66830;SDS011;53739;44.224;22.528;2023-02-22T01:49:33;168.70;;;71.20;;
66830;SDS011;53739;44.224;22.528;2023-02-22T01:52:12;156.00;;;71.55;;
66830;SDS011;53739;44.224;22.528;2023-02-22T01:54:42;167.60;;;71.25;;
66830;SDS011;53739;44.224;22.528;2023-02-22T01:57:17;174.32;;;72.68;;
66830;SDS011;53739;44.224;22.528;2023-02-22T01:59:47;174.52;;;75.93;;
66830;SDS011;53739;44.224;22.528;2023-02-22T02:02:17;146.00;;;71.43;;
66830;SDS011;53739;44.224;22.528;2023-02-22T02:04:45;127.28;;;61.53;;
66830;SDS011;53739;44.224;22.528;2023-02-22T02:07:13;200.20;;;95.07;;
66830;SDS011;53739;44.224;22.528;2023-02-22T02:09:43;142.20;;;72.35;;
66830;SDS011;53739;44.224;22.528;2023-02-22T02:12:16;118.57;;;59.03;;
66830;SDS011;53739;44.224;22.528;2023-02-22T02:14:43;107.57;;;55.05;;
66830;SDS011;53739;44.224;22.528;2023-02-22T02:17:11;169.55;;;90.10;;
66830;SDS011;53739;44.224;22.528;2023-02-22T02:30:44;342.10;;;125.03;;
66830;SDS011;53739;44.224;22.528;2023-02-22T02:36:27;328.60;;;121.15;;
66830;SDS011;53739;44.224;22.528;2023-02-22T02:39:11;296.38;;;111.47;;
66830;SDS011;53739;44.224;22.528;2023-02-22T02:41:53;186.35;;;80.18;;
66830;SDS011;53739;44.224;22.528;2023-02-22T02:44:21;119.85;;;57.17;;
66830;SDS011;53739;44.224;22.528;2023-02-22T02:47:10;115.75;;;56.67;;
66830;SDS011;53739;44.224;22.528;2023-02-22T02:52:26;104.40;;;48.72;;
66830;SDS011;53739;44.224;22.528;2023-02-22T02:54:54;86.80;;;41.53;;
66830;SDS011;53739;44.224;22.528;2023-02-22T02:57:20;70.13;;;34.40;;
66830;SDS011;53739;44.224;22.528;2023-02-22T02:59:46;56.80;;;29.08;;
66830;SDS011;53739;44.224;22.528;2023-02-22T03:02:22;50.03;;;27.25;;
66830;SDS011;53739;44.224;22.528;2023-02-22T03:26:49;95.13;;;40.17;;
66830;SDS011;53739;44.224;22.528;2023-02-22T03:29:27;25.02;;;14.20;;
66830;SDS011;53739;44.224;22.528;2023-02-22T03:31:59;19.80;;;9.30;;
66830;SDS011;53739;44.224;22.528;2023-02-22T03:34:32;14.07;;;6.72;;
66830;SDS011;53739;44.224;22.528;2023-02-22T03:37:03;31.20;;;14.68;;
66830;SDS011;53739;44.224;22.528;2023-02-22T03:39:38;19.15;;;9.93;;
66830;SDS011;53739;44.224;22.528;2023-02-22T03:42:07;11.25;;;6.28;;
66830;SDS011;53739;44.224;22.528;2023-02-22T03:44:37;15.00;;;7.40;;
66830;SDS011;53739;44.224;22.528;2023-02-22T03:47:06;36.40;;;15.63;;
66830;SDS011;53739;44.224;22.528;2023-02-22T03:49:46;25.77;;;12.77;;
66830;SDS011;53739;44.224;22.528;2023-02-22T03:52:16;22.48;;;9.30;;
66830;SDS011;53739;44.224;22.528;2023-02-22T03:54:43;22.20;;;11.43;;
66830;SDS011;53739;44.224;22.528;2023-02-22T03:57:16;32.95;;;14.93;;
66830;SDS011;53739;44.224;22.528;2023-02-22T03:59:48;28.63;;;13.93;;
66830;SDS011;53739;44.224;22.528;2023-02-22T04:02:14;21.92;;;11.88;;
66830;SDS011;53739;44.224;22.528;2023-02-22T04:04:43;19.02;;;11.20;;
66830;SDS011;53739;44.224;22.528;2023-02-22T04:07:12;13.35;;;6.82;;
66830;SDS011;53739;44.224;22.528;2023-02-22T04:09:38;8.73;;;5.47;;
66830;SDS011;53739;44.224;22.528;2023-02-22T04:12:04;12.65;;;6.38;;
66830;SDS011;53739;44.224;22.528;2023-02-22T04:14:30;10.50;;;5.85;;
66830;SDS011;53739;44.224;22.528;2023-02-22T04:16:55;125.65;;;56.05;;
66830;SDS011;53739;44.224;22.528;2023-02-22T04:19:21;103.28;;;47.90;;
66830;SDS011;53739;44.224;22.528;2023-02-22T04:21:47;81.82;;;34.95;;
66830;SDS011;53739;44.224;22.528;2023-02-22T04:24:13;42.85;;;19.23;;
66830;SDS011;53739;44.224;22.528;2023-02-22T04:26:39;21.58;;;12.98;;
66830;SDS011;53739;44.224;22.528;2023-02-22T04:29:05;25.65;;;14.05;;
66830;SDS011;53739;44.224;22.528;2023-02-22T04:31:31;25.00;;;13.23;;
66830;SDS011;53739;44.224;22.528;2023-02-22T04:33:58;24.77;;;14.15;;
66830;SDS011;53739;44.224;22.528;2023-02-22T04:36:24;25.27;;;15.05;;
66830;SDS011;53739;44.224;22.528;2023-02-22T04:38:51;27.48;;;15.93;;
66830;SDS011;53739;44.224;22.528;2023-02-22T04:41:17;47.25;;;26.33;;
66830;SDS011;53739;44.224;22.528;2023-02-22T04:43:43;57.20;;;32.00;;
66830;SDS011;53739;44.224;22.528;2023-02-22T04:46:09;57.97;;;31.65;;
66830;SDS011;53739;44.224;22.528;2023-02-22T04:48:36;32.15;;;18.02;;
66830;SDS011;53739;44.224;22.528;2023-02-22T04:51:02;33.28;;;19.17;;
66830;SDS011;53739;44.224;22.528;2023-02-22T04:53:27;32.85;;;19.40;;
66830;SDS011;53739;44.224;22.528;2023-02-22T04:55:53;24.83;;;15.73;;
66830;SDS011;53739;44.224;22.528;2023-02-22T04:58:19;30.10;;;20.65;;
66830;SDS011;53739;44.224;22.528;2023-02-22T05:00:45;43.83;;;26.73;;
66830;SDS011;53739;44.224;22.528;2023-02-22T05:03:11;52.33;;;31.67;;
66830;SDS011;53739;44.224;22.528;2023-02-22T05:05:37;35.65;;;22.20;;
66830;SDS011;53739;44.224;22.528;2023-02-22T05:08:03;37.45;;;22.85;;
66830;SDS011;53739;44.224;22.528;2023-02-22T05:10:28;41.67;;;24.30;;
66830;SDS011;53739;44.224;22.528;2023-02-22T05:12:54;29.88;;;18.60;;
66830;SDS011;53739;44.224;22.528;2023-02-22T05:15:20;24.50;;;15.20;;
66830;SDS011;53739;44.224;22.528;2023-02-22T05:17:49;32.10;;;18.20;;
66830;SDS011;53739;44.224;22.528;2023-02-22T05:20:23;43.30;;;23.10;;
66830;SDS011;53739;44.224;22.528;2023-02-22T05:22:54;30.15;;;16.33;;
66830;SDS011;53739;44.224;22.528;2023-02-22T05:25:21;15.57;;;10.05;;
66830;SDS011;53739;44.224;22.528;2023-02-22T05:27:50;25.88;;;14.98;;
66830;SDS011;53739;44.224;22.528;2023-02-22T05:30:22;24.85;;;14.10;;
66830;SDS011;53739;44.224;22.528;2023-02-22T05:32:51;21.98;;;14.13;;
66830;SDS011;53739;44.224;22.528;2023-02-22T05:35:17;21.10;;;13.07;;
66830;SDS011;53739;44.224;22.528;2023-02-22T05:37:44;26.30;;;15.43;;
66830;SDS011;53739;44.224;22.528;2023-02-22T05:40:10;23.52;;;13.57;;
66830;SDS011;53739;44.224;22.528;2023-02-22T05:42:38;25.85;;;15.57;;
66830;SDS011;53739;44.224;22.528;2023-02-22T05:45:05;26.10;;;14.77;;
66830;SDS011;53739;44.224;22.528;2023-02-22T05:47:32;25.35;;;15.20;;
66830;SDS011;53739;44.224;22.528;2023-02-22T05:49:57;26.77;;;15.40;;
66830;SDS011;53739;44.224;22.528;2023-02-22T05:52:23;21.95;;;13.52;;
66830;SDS011;53739;44.224;22.528;2023-02-22T05:54:49;26.33;;;15.13;;
66830;SDS011;53739;44.224;22.528;2023-02-22T05:57:15;35.70;;;21.42;;
66830;SDS011;53739;44.224;22.528;2023-02-22T05:59:41;37.42;;;20.15;;
66830;SDS011;53739;44.224;22.528;2023-02-22T06:02:07;46.30;;;26.67;;
66830;SDS011;53739;44.224;22.528;2023-02-22T06:04:33;68.90;;;39.88;;
66830;SDS011;53739;44.224;22.528;2023-02-22T06:06:59;63.13;;;36.63;;
66830;SDS011;53739;44.224;22.528;2023-02-22T06:09:25;60.38;;;36.78;;
66830;SDS011;53739;44.224;22.528;2023-02-22T06:11:50;62.13;;;36.90;;
66830;SDS011;53739;44.224;22.528;2023-02-22T06:14:16;60.65;;;36.90;;
66830;SDS011;53739;44.224;22.528;2023-02-22T06:16:42;61.65;;;37.10;;
66830;SDS011;53739;44.224;22.528;2023-02-22T06:19:08;66.82;;;38.35;;
66830;SDS011;53739;44.224;22.528;2023-02-22T06:21:33;70.82;;;40.03;;
66830;SDS011;53739;44.224;22.528;2023-02-22T06:24:00;103.22;;;57.15;;
66830;SDS011;53739;44.224;22.528;2023-02-22T06:26:28;98.60;;;58.67;;
66830;SDS011;53739;44.224;22.528;2023-02-22T06:28:54;106.50;;;61.00;;
66830;SDS011;53739;44.224;22.528;2023-02-22T06:31:19;98.30;;;55.97;;
66830;SDS011;53739;44.224;22.528;2023-02-22T06:33:45;135.85;;;79.78;;
66830;SDS011;53739;44.224;22.528;2023-02-22T06:36:11;91.35;;;58.38;;
66830;SDS011;53739;44.224;22.528;2023-02-22T06:38:37;51.38;;;32.85;;
66830;SDS011;53739;44.224;22.528;2023-02-22T06:41:02;24.50;;;11.85;;
66830;SDS011;53739;44.224;22.528;2023-02-22T06:43:28;15.50;;;8.57;;
66830;SDS011;53739;44.224;22.528;2023-02-22T06:45:54;18.90;;;11.43;;
66830;SDS011;53739;44.224;22.528;2023-02-22T06:48:20;52.97;;;25.73;;
66830;SDS011;53739;44.224;22.528;2023-02-22T06:50:45;90.15;;;44.70;;
66830;SDS011;53739;44.224;22.528;2023-02-22T06:53:11;68.22;;;39.45;;
66830;SDS011;53739;44.224;22.528;2023-02-22T06:55:37;64.63;;;39.25;;
66830;SDS011;53739;44.224;22.528;2023-02-22T06:58:03;51.15;;;29.92;;
66830;SDS011;53739;44.224;22.528;2023-02-22T07:00:29;45.92;;;29.48;;
66830;SDS011;53739;44.224;22.528;2023-02-22T07:02:56;36.20;;;22.05;;
66830;SDS011;53739;44.224;22.528;2023-02-22T07:05:23;19.08;;;11.90;;
66830;SDS011;53739;44.224;22.528;2023-02-22T07:07:50;15.60;;;7.75;;
66830;SDS011;53739;44.224;22.528;2023-02-22T07:12:43;8.75;;;4.38;;
66830;SDS011;53739;44.224;22.528;2023-02-22T07:15:09;7.88;;;4.75;;
66830;SDS011;53739;44.224;22.528;2023-02-22T07:17:35;15.65;;;7.55;;
66830;SDS011;53739;44.224;22.528;2023-02-22T07:20:00;11.52;;;5.70;;
66830;SDS011;53739;44.224;22.528;2023-02-22T07:22:26;7.90;;;5.30;;
66830;SDS011;53739;44.224;22.528;2023-02-22T07:24:52;8.73;;;5.25;;
66830;SDS011;53739;44.224;22.528;2023-02-22T07:27:19;8.40;;;4.72;;
66830;SDS011;53739;44.224;22.528;2023-02-22T07:29:45;10.68;;;4.50;;
66830;SDS011;53739;44.224;22.528;2023-02-22T07:32:10;7.57;;;3.10;;
66830;SDS011;53739;44.224;22.528;2023-02-22T07:34:36;7.93;;;3.90;;
66830;SDS011;53739;44.224;22.528;2023-02-22T07:37:02;7.40;;;3.80;;
66830;SDS011;53739;44.224;22.528;2023-02-22T07:39:28;4.30;;;2.88;;
66830;SDS011;53739;44.224;22.528;2023-02-22T07:41:53;5.55;;;3.22;;
66830;SDS011;53739;44.224;22.528;2023-02-22T07:44:19;5.45;;;3.45;;
66830;SDS011;53739;44.224;22.528;2023-02-22T07:46:48;9.77;;;4.30;;
66830;SDS011;53739;44.224;22.528;2023-02-22T07:49:14;19.85;;;8.77;;
66830;SDS011;53739;44.224;22.528;2023-02-22T07:51:40;12.32;;;4.68;;
66830;SDS011;53739;44.224;22.528;2023-02-22T07:54:06;6.90;;;3.75;;
66830;SDS011;53739;44.224;22.528;2023-02-22T07:56:32;7.60;;;3.90;;
66830;SDS011;53739;44.224;22.528;2023-02-22T07:58:58;10.60;;;4.53;;
66830;SDS011;53739;44.224;22.528;2023-02-22T08:01:25;8.77;;;4.05;;
66830;SDS011;53739;44.224;22.528;2023-02-22T08:03:51;7.05;;;3.38;;
66830;SDS011;53739;44.224;22.528;2023-02-22T08:06:17;8.00;;;3.63;;
66830;SDS011;53739;44.224;22.528;2023-02-22T08:08:44;5.20;;;3.42;;
66830;SDS011;53739;44.224;22.528;2023-02-22T08:11:10;7.55;;;3.83;;
66830;SDS011;53739;44.224;22.528;2023-02-22T08:13:37;6.35;;;3.38;;
66830;SDS011;53739;44.224;22.528;2023-02-22T08:16:03;8.43;;;3.85;;
66830;SDS011;53739;44.224;22.528;2023-02-22T08:18:29;8.75;;;3.92;;
66830;SDS011;53739;44.224;22.528;2023-02-22T08:20:55;6.50;;;4.05;;
66830;SDS011;53739;44.224;22.528;2023-02-22T08:23:22;7.88;;;3.72;;
66830;SDS011;53739;44.224;22.528;2023-02-22T08:25:49;7.28;;;3.65;;
66830;SDS011;53739;44.224;22.528;2023-02-22T08:28:17;9.10;;;3.25;;
66830;SDS011;53739;44.224;22.528;2023-02-22T08:30:46;10.98;;;5.03;;
66830;SDS011;53739;44.224;22.528;2023-02-22T08:33:13;9.43;;;3.83;;
66830;SDS011;53739;44.224;22.528;2023-02-22T08:35:43;13.52;;;7.18;;
66830;SDS011;53739;44.224;22.528;2023-02-22T08:38:19;8.52;;;3.90;;
66830;SDS011;53739;44.224;22.528;2023-02-22T08:40:47;10.88;;;4.30;;
66830;SDS011;53739;44.224;22.528;2023-02-22T08:43:13;9.90;;;6.18;;
66830;SDS011;53739;44.224;22.528;2023-02-22T08:45:40;8.25;;;5.18;;
66830;SDS011;53739;44.224;22.528;2023-02-22T08:48:06;7.63;;;4.10;;
66830;SDS011;53739;44.224;22.528;2023-02-22T08:50:32;9.05;;;5.65;;
66830;SDS011;53739;44.224;22.528;2023-02-22T08:52:58;9.20;;;4.85;;
66830;SDS011;53739;44.224;22.528;2023-02-22T08:55:27;8.35;;;5.00;;
66830;SDS011;53739;44.224;22.528;2023-02-22T08:57:56;12.23;;;6.20;;
66830;SDS011;53739;44.224;22.528;2023-02-22T09:00:22;11.57;;;6.25;;
66830;SDS011;53739;44.224;22.528;2023-02-22T09:02:49;13.13;;;7.85;;
66830;SDS011;53739;44.224;22.528;2023-02-22T09:05:16;8.27;;;3.78;;
66830;SDS011;53739;44.224;22.528;2023-02-22T09:07:41;14.13;;;8.52;;
66830;SDS011;53739;44.224;22.528;2023-02-22T09:10:18;7.35;;;4.28;;
66830;SDS011;53739;44.224;22.528;2023-02-22T09:12:49;5.35;;;3.65;;
66830;SDS011;53739;44.224;22.528;2023-02-22T09:15:22;8.25;;;4.50;;
66830;SDS011;53739;44.224;22.528;2023-02-22T09:17:51;14.90;;;5.80;;
66830;SDS011;53739;44.224;22.528;2023-02-22T09:20:18;8.45;;;4.88;;
66830;SDS011;53739;44.224;22.528;2023-02-22T09:22:46;9.10;;;5.07;;
66830;SDS011;53739;44.224;22.528;2023-02-22T09:25:12;16.88;;;9.18;;
66830;SDS011;53739;44.224;22.528;2023-02-22T09:27:45;6.95;;;4.65;;
66830;SDS011;53739;44.224;22.528;2023-02-22T09:30:16;11.35;;;6.15;;
66830;SDS011;53739;44.224;22.528;2023-02-22T09:33:14;9.63;;;4.32;;
66830;SDS011;53739;44.224;22.528;2023-02-22T09:35:42;14.95;;;8.23;;
66830;SDS011;53739;44.224;22.528;2023-02-22T09:38:15;8.82;;;4.97;;
66830;SDS011;53739;44.224;22.528;2023-02-22T09:40:48;7.18;;;4.78;;
66830;SDS011;53739;44.224;22.528;2023-02-22T09:57:13;10.80;;;6.13;;
66830;SDS011;53739;44.224;22.528;2023-02-22T09:59:47;10.15;;;6.78;;
66830;SDS011;53739;44.224;22.528;2023-02-22T10:02:37;8.65;;;4.88;;
66830;SDS011;53739;44.224;22.528;2023-02-22T10:05:23;6.47;;;4.18;;
66830;SDS011;53739;44.224;22.528;2023-02-22T10:08:11;7.30;;;4.03;;
66830;SDS011;53739;44.224;22.528;2023-02-22T10:10:40;9.05;;;5.20;;
66830;SDS011;53739;44.224;22.528;2023-02-22T10:13:13;9.25;;;5.05;;
66830;SDS011;53739;44.224;22.528;2023-02-22T10:16:07;18.05;;;9.52;;
66830;SDS011;53739;44.224;22.528;2023-02-22T10:21:29;7.22;;;4.70;;
66830;SDS011;53739;44.224;22.528;2023-02-22T10:24:04;8.68;;;4.13;;
66830;SDS011;53739;44.224;22.528;2023-02-22T10:26:41;33.45;;;14.30;;
66830;SDS011;53739;44.224;22.528;2023-02-22T10:31:41;16.20;;;4.38;;
66830;SDS011;53739;44.224;22.528;2023-02-22T10:34:11;13.15;;;6.85;;
66830;SDS011;53739;44.224;22.528;2023-02-22T10:36:42;14.43;;;7.15;;
66830;SDS011;53739;44.224;22.528;2023-02-22T10:42:05;17.77;;;7.55;;
66830;SDS011;53739;44.224;22.528;2023-02-22T10:44:37;8.60;;;4.43;;
66830;SDS011;53739;44.224;22.528;2023-02-22T10:47:07;8.60;;;5.07;;
66830;SDS011;53739;44.224;22.528;2023-02-22T10:49:36;9.60;;;5.15;;
66830;SDS011;53739;44.224;22.528;2023-02-22T10:52:26;14.02;;;6.75;;
66830;SDS011;53739;44.224;22.528;2023-02-22T10:54:54;12.05;;;5.90;;
66830;SDS011;53739;44.224;22.528;2023-02-22T10:57:28;14.02;;;6.65;;
66830;SDS011;53739;44.224;22.528;2023-02-22T11:00:23;9.30;;;4.45;;
66830;SDS011;53739;44.224;22.528;2023-02-22T11:03:00;8.48;;;4.15;;
66830;SDS011;53739;44.224;22.528;2023-02-22T11:05:40;20.27;;;8.75;;
66830;SDS011;53739;44.224;22.528;2023-02-22T11:08:17;18.00;;;8.80;;
66830;SDS011;53739;44.224;22.528;2023-02-22T11:10:48;17.67;;;7.13;;
66830;SDS011;53739;44.224;22.528;2023-02-22T11:13:32;12.35;;;5.68;;
66830;SDS011;53739;44.224;22.528;2023-02-22T11:16:24;9.95;;;5.35;;
66830;SDS011;53739;44.224;22.528;2023-02-22T11:21:45;8.70;;;4.68;;
66830;SDS011;53739;44.224;22.528;2023-02-22T11:24:15;6.88;;;4.05;;
66830;SDS011;53739;44.224;22.528;2023-02-22T11:26:52;13.80;;;6.80;;
66830;SDS011;53739;44.224;22.528;2023-02-22T11:29:25;7.65;;;4.25;;
66830;SDS011;53739;44.224;22.528;2023-02-22T11:31:56;8.90;;;4.22;;
66830;SDS011;53739;44.224;22.528;2023-02-22T11:34:36;7.82;;;4.38;;
66830;SDS011;53739;44.224;22.528;2023-02-22T11:39:43;9.43;;;5.28;;
66830;SDS011;53739;44.224;22.528;2023-02-22T11:42:20;9.93;;;3.88;;
66830;SDS011;53739;44.224;22.528;2023-02-22T11:44:47;7.10;;;3.80;;
66830;SDS011;53739;44.224;22.528;2023-02-22T11:47:15;34.50;;;19.60;;
66830;SDS011;53739;44.224;22.528;2023-02-22T11:49:42;21.80;;;15.30;;
66830;SDS011;53739;44.224;22.528;2023-02-22T11:52:26;21.10;;;10.60;;
66830;SDS011;53739;44.224;22.528;2023-02-22T12:12:05;42.33;;;28.83;;
66830;SDS011;53739;44.224;22.528;2023-02-22T12:20:08;74.22;;;34.03;;
66830;SDS011;53739;44.224;22.528;2023-02-22T12:23:35;48.65;;;23.17;;
66830;SDS011;53739;44.224;22.528;2023-02-22T12:25:48;89.43;;;35.30;;
66830;SDS011;53739;44.224;22.528;2023-02-22T12:28:42;14.30;;;9.27;;
66830;SDS011;53739;44.224;22.528;2023-02-22T12:31:22;14.05;;;10.30;;
66830;SDS011;53739;44.224;22.528;2023-02-22T12:37:17;19.05;;;14.30;;
66830;SDS011;53739;44.224;22.528;2023-02-22T12:47:57;8.13;;;5.75;;
66830;SDS011;53739;44.224;22.528;2023-02-22T12:50:42;7.18;;;4.95;;
66830;SDS011;53739;44.224;22.528;2023-02-22T12:53:15;8.52;;;6.68;;
66830;SDS011;53739;44.224;22.528;2023-02-22T13:00:50;20.05;;;13.18;;
66830;SDS011;53739;44.224;22.528;2023-02-22T13:03:38;35.33;;;20.90;;
66830;SDS011;53739;44.224;22.528;2023-02-22T13:09:02;35.70;;;25.27;;
66830;SDS011;53739;44.224;22.528;2023-02-22T13:11:59;18.52;;;12.02;;
66830;SDS011;53739;44.224;22.528;2023-02-22T13:15:00;13.20;;;8.63;;
66830;SDS011;53739;44.224;22.528;2023-02-22T13:20:58;8.45;;;5.68;;
66830;SDS011;53739;44.224;22.528;2023-02-22T13:26:58;18.42;;;11.55;;
66830;SDS011;53739;44.224;22.528;2023-02-22T13:29:40;13.57;;;10.15;;
66830;SDS011;53739;44.224;22.528;2023-02-22T13:53:31;8.90;;;4.43;;
66830;SDS011;53739;44.224;22.528;2023-02-22T13:56:07;9.02;;;5.40;;
66830;SDS011;53739;44.224;22.528;2023-02-22T13:58:45;7.60;;;4.60;;
66830;SDS011;53739;44.224;22.528;2023-02-22T14:01:46;9.18;;;5.72;;
66830;SDS011;53739;44.224;22.528;2023-02-22T14:04:20;7.40;;;5.00;;
66830;SDS011;53739;44.224;22.528;2023-02-22T14:06:57;10.82;;;6.80;;
66830;SDS011;53739;44.224;22.528;2023-02-22T14:12:54;11.80;;;6.22;;
66830;SDS011;53739;44.224;22.528;2023-02-22T14:17:39;11.32;;;7.43;;
66830;SDS011;53739;44.224;22.528;2023-02-22T14:22:44;8.68;;;4.88;;
66830;SDS011;53739;44.224;22.528;2023-02-22T14:28:07;7.32;;;4.78;;
66830;SDS011;53739;44.224;22.528;2023-02-22T14:31:03;7.40;;;4.88;;
66830;SDS011;53739;44.224;22.528;2023-02-22T14:33:51;6.18;;;4.57;;
66830;SDS011;53739;44.224;22.528;2023-02-22T14:44:57;7.60;;;4.65;;
66830;SDS011;53739;44.224;22.528;2023-02-22T14:50:23;7.28;;;4.90;;
66830;SDS011;53739;44.224;22.528;2023-02-22T14:53:03;47.03;;;20.92;;
66830;SDS011;53739;44.224;22.528;2023-02-22T14:55:36;16.00;;;8.48;;
66830;SDS011;53739;44.224;22.528;2023-02-22T14:58:15;29.52;;;16.15;;
66830;SDS011;53739;44.224;22.528;2023-02-22T15:00:43;27.55;;;15.13;;
66830;SDS011;53739;44.224;22.528;2023-02-22T15:03:30;28.20;;;17.00;;
66830;SDS011;53739;44.224;22.528;2023-02-22T15:08:44;28.23;;;8.63;;
66830;SDS011;53739;44.224;22.528;2023-02-22T15:11:25;9.55;;;6.00;;
66830;SDS011;53739;44.224;22.528;2023-02-22T15:13:56;12.20;;;8.00;;
66830;SDS011;53739;44.224;22.528;2023-02-22T15:16:24;13.02;;;6.95;;
66830;SDS011;53739;44.224;22.528;2023-02-22T15:18:54;10.23;;;6.35;;
66830;SDS011;53739;44.224;22.528;2023-02-22T15:21:22;12.38;;;7.38;;
66830;SDS011;53739;44.224;22.528;2023-02-22T15:23:51;13.00;;;7.50;;
66830;SDS011;53739;44.224;22.528;2023-02-22T15:26:28;9.43;;;6.43;;
66830;SDS011;53739;44.224;22.528;2023-02-22T15:29:15;6.35;;;3.75;;
66830;SDS011;53739;44.224;22.528;2023-02-22T15:31:42;9.30;;;5.65;;
66830;SDS011;53739;44.224;22.528;2023-02-22T15:36:43;11.88;;;7.38;;
66830;SDS011;53739;44.224;22.528;2023-02-22T15:39:27;6.35;;;4.30;;
66830;SDS011;53739;44.224;22.528;2023-02-22T15:44:36;12.63;;;6.68;;
66830;SDS011;53739;44.224;22.528;2023-02-22T15:47:04;10.43;;;7.03;;
66830;SDS011;53739;44.224;22.528;2023-02-22T15:49:30;11.02;;;6.80;;
66830;SDS011;53739;44.224;22.528;2023-02-22T15:52:04;8.05;;;5.03;;
66830;SDS011;53739;44.224;22.528;2023-02-22T15:54:38;8.70;;;5.57;;
66830;SDS011;53739;44.224;22.528;2023-02-22T15:57:06;14.05;;;8.60;;
66830;SDS011;53739;44.224;22.528;2023-02-22T15:59:38;15.45;;;8.00;;
66830;SDS011;53739;44.224;22.528;2023-02-22T16:02:14;20.67;;;9.43;;
66830;SDS011;53739;44.224;22.528;2023-02-22T16:04:46;17.42;;;10.50;;
66830;SDS011;53739;44.224;22.528;2023-02-22T16:07:12;15.05;;;8.07;;
66830;SDS011;53739;44.224;22.528;2023-02-22T16:09:48;11.38;;;7.22;;
66830;SDS011;53739;44.224;22.528;2023-02-22T16:14:50;14.48;;;7.85;;
66830;SDS011;53739;44.224;22.528;2023-02-22T16:17:37;11.57;;;8.35;;
66830;SDS011;53739;44.224;22.528;2023-02-22T16:22:43;18.02;;;11.48;;
66830;SDS011;53739;44.224;22.528;2023-02-22T16:30:33;15.68;;;9.93;;
66830;SDS011;53739;44.224;22.528;2023-02-22T16:33:05;29.40;;;16.52;;
66830;SDS011;53739;44.224;22.528;2023-02-22T16:35:38;54.85;;;32.53;;
66830;SDS011;53739;44.224;22.528;2023-02-22T16:38:05;57.10;;;31.42;;
66830;SDS011;53739;44.224;22.528;2023-02-22T16:40:34;137.57;;;64.70;;
66830;SDS011;53739;44.224;22.528;2023-02-22T16:43:12;74.72;;;36.05;;
66830;SDS011;53739;44.224;22.528;2023-02-22T16:45:41;46.00;;;23.58;;
66830;SDS011;53739;44.224;22.528;2023-02-22T16:48:20;54.70;;;29.33;;
66830;SDS011;53739;44.224;22.528;2023-02-22T16:50:48;96.88;;;46.75;;
66830;SDS011;53739;44.224;22.528;2023-02-22T16:53:16;72.45;;;40.53;;
66830;SDS011;53739;44.224;22.528;2023-02-22T16:55:44;262.85;;;149.48;;
66830;SDS011;53739;44.224;22.528;2023-02-22T16:58:11;80.72;;;43.60;;
66830;SDS011;53739;44.224;22.528;2023-02-22T17:00:38;97.30;;;57.40;;
66830;SDS011;53739;44.224;22.528;2023-02-22T17:03:06;54.92;;;33.17;;
66830;SDS011;53739;44.224;22.528;2023-02-22T17:05:44;75.25;;;55.33;;
66830;SDS011;53739;44.224;22.528;2023-02-22T17:08:10;101.28;;;61.95;;
66830;SDS011;53739;44.224;22.528;2023-02-22T17:10:36;122.07;;;72.18;;
66830;SDS011;53739;44.224;22.528;2023-02-22T17:13:02;163.13;;;100.53;;
66830;SDS011;53739;44.224;22.528;2023-02-22T17:15:31;148.70;;;96.35;;
66830;SDS011;53739;44.224;22.528;2023-02-22T17:17:59;134.25;;;92.57;;
66830;SDS011;53739;44.224;22.528;2023-02-22T17:20:28;130.20;;;84.30;;
66830;SDS011;53739;44.224;22.528;2023-02-22T17:23:02;201.40;;;122.43;;
66830;SDS011;53739;44.224;22.528;2023-02-22T17:25:33;240.40;;;140.13;;
66830;SDS011;53739;44.224;22.528;2023-02-22T17:28:05;270.73;;;161.75;;
66830;SDS011;53739;44.224;22.528;2023-02-22T17:30:31;283.20;;;173.25;;
66830;SDS011;53739;44.224;22.528;2023-02-22T17:32:59;269.58;;;169.63;;
66830;SDS011;53739;44.224;22.528;2023-02-22T17:35:27;373.63;;;228.45;;